sensor_id;sensor_type;location;lat;lon;timestamp;P1;durP1;ratioP1;P2;durP2;ratioP2
21114;SDS011;10715;48.546;9.896;2023-02-15T00:01:23;70.50;;;15.00;;
21114;SDS011;10715;48.546;9.896;2023-02-15T00:03:49;38.00;;;14.90;;
21114;SDS011;10715;48.546;9.896;2023-02-15T00:06:15;30.80;;;13.70;;
21114;SDS011;10715;48.546;9.896;2023-02-15T00:08:42;29.77;;;13.00;;
21114;SDS011;10715;48.546;9.896;2023-02-15T00:11:08;64.83;;;15.70;;
21114;SDS011;10715;48.546;9.896;2023-02-15T00:13:36;25.63;;;12.80;;
21114;SDS011;10715;48.546;9.896;2023-02-15T00:16:04;22.33;;;12.67;;
21114;SDS011;10715;48.546;9.896;2023-02-15T00:18:31;34.83;;;13.90;;
21114;SDS011;10715;48.546;9.896;2023-02-15T00:20:57;29.97;;;15.10;;
21114;SDS011;10715;48.546;9.896;2023-02-15T00:23:23;22.67;;;13.03;;
21114;SDS011;10715;48.546;9.896;2023-02-15T00:25:51;23.03;;;11.33;;
21114;SDS011;10715;48.546;9.896;2023-02-15T00:28:16;26.23;;;11.00;;
21114;SDS011;10715;48.546;9.896;2023-02-15T00:30:42;33.80;;;13.23;;
21114;SDS011;10715;48.546;9.896;2023-02-15T00:33:07;32.83;;;13.43;;
21114;SDS011;10715;48.546;9.896;2023-02-15T00:35:33;34.00;;;14.67;;
21114;SDS011;10715;48.546;9.896;2023-02-15T00:37:59;30.80;;;12.40;;
21114;SDS011;10715;48.546;9.896;2023-02-15T00:40:24;31.17;;;13.60;;
21114;SDS011;10715;48.546;9.896;2023-02-15T00:42:50;53.47;;;14.40;;
21114;SDS011;10715;48.546;9.896;2023-02-15T00:45:16;40.47;;;14.90;;
21114;SDS011;10715;48.546;9.896;2023-02-15T00:47:41;36.90;;;12.97;;
21114;SDS011;10715;48.546;9.896;2023-02-15T00:50:07;48.07;;;14.10;;
21114;SDS011;10715;48.546;9.896;2023-02-15T00:52:33;33.73;;;14.60;;
21114;SDS011;10715;48.546;9.896;2023-02-15T00:54:59;27.77;;;13.13;;
21114;SDS011;10715;48.546;9.896;2023-02-15T00:57:24;39.33;;;13.00;;
21114;SDS011;10715;48.546;9.896;2023-02-15T00:59:50;41.03;;;13.03;;
21114;SDS011;10715;48.546;9.896;2023-02-15T01:02:16;50.63;;;15.33;;
21114;SDS011;10715;48.546;9.896;2023-02-15T01:04:41;34.67;;;13.33;;
21114;SDS011;10715;48.546;9.896;2023-02-15T01:07:07;32.60;;;13.17;;
21114;SDS011;10715;48.546;9.896;2023-02-15T01:09:33;36.23;;;12.37;;
21114;SDS011;10715;48.546;9.896;2023-02-15T01:11:59;32.37;;;13.00;;
21114;SDS011;10715;48.546;9.896;2023-02-15T01:14:24;26.27;;;14.33;;
21114;SDS011;10715;48.546;9.896;2023-02-15T01:16:50;30.67;;;11.40;;
21114;SDS011;10715;48.546;9.896;2023-02-15T01:19:16;29.87;;;13.20;;
21114;SDS011;10715;48.546;9.896;2023-02-15T01:21:41;24.37;;;13.90;;
21114;SDS011;10715;48.546;9.896;2023-02-15T01:24:13;25.60;;;13.93;;
21114;SDS011;10715;48.546;9.896;2023-02-15T01:26:39;31.07;;;14.00;;
21114;SDS011;10715;48.546;9.896;2023-02-15T01:29:05;48.30;;;13.10;;
21114;SDS011;10715;48.546;9.896;2023-02-15T01:31:31;29.90;;;13.80;;
21114;SDS011;10715;48.546;9.896;2023-02-15T01:33:56;27.97;;;14.23;;
21114;SDS011;10715;48.546;9.896;2023-02-15T01:36:22;32.93;;;14.00;;
21114;SDS011;10715;48.546;9.896;2023-02-15T01:38:48;35.87;;;14.93;;
21114;SDS011;10715;48.546;9.896;2023-02-15T01:41:17;24.20;;;12.73;;
21114;SDS011;10715;48.546;9.896;2023-02-15T01:43:49;27.27;;;11.83;;
21114;SDS011;10715;48.546;9.896;2023-02-15T01:46:20;27.77;;;12.70;;
21114;SDS011;10715;48.546;9.896;2023-02-15T01:48:54;39.60;;;14.47;;
21114;SDS011;10715;48.546;9.896;2023-02-15T01:51:26;33.97;;;14.67;;
21114;SDS011;10715;48.546;9.896;2023-02-15T01:54:01;27.03;;;13.93;;
21114;SDS011;10715;48.546;9.896;2023-02-15T01:56:33;34.40;;;14.70;;
21114;SDS011;10715;48.546;9.896;2023-02-15T01:59:02;24.73;;;13.47;;
21114;SDS011;10715;48.546;9.896;2023-02-15T02:01:33;26.10;;;12.93;;
21114;SDS011;10715;48.546;9.896;2023-02-15T02:06:30;42.00;;;14.23;;
21114;SDS011;10715;48.546;9.896;2023-02-15T02:08:58;22.47;;;11.87;;
21114;SDS011;10715;48.546;9.896;2023-02-15T02:11:25;43.80;;;14.47;;
21114;SDS011;10715;48.546;9.896;2023-02-15T02:13:51;37.83;;;12.23;;
21114;SDS011;10715;48.546;9.896;2023-02-15T02:27:09;31.87;;;14.60;;
21114;SDS011;10715;48.546;9.896;2023-02-15T02:30:14;23.00;;;11.40;;
21114;SDS011;10715;48.546;9.896;2023-02-15T02:35:52;50.77;;;13.70;;
21114;SDS011;10715;48.546;9.896;2023-02-15T02:41:32;23.33;;;13.57;;
21114;SDS011;10715;48.546;9.896;2023-02-15T02:47:01;24.90;;;12.73;;
21114;SDS011;10715;48.546;9.896;2023-02-15T02:49:41;27.90;;;14.60;;
21114;SDS011;10715;48.546;9.896;2023-02-15T02:54:58;21.87;;;11.30;;
21114;SDS011;10715;48.546;9.896;2023-02-15T02:57:25;32.37;;;14.53;;
21114;SDS011;10715;48.546;9.896;2023-02-15T02:59:52;60.27;;;16.37;;
21114;SDS011;10715;48.546;9.896;2023-02-15T03:02:21;28.13;;;15.83;;
21114;SDS011;10715;48.546;9.896;2023-02-15T03:04:54;26.07;;;13.97;;
21114;SDS011;10715;48.546;9.896;2023-02-15T03:07:28;41.10;;;12.63;;
21114;SDS011;10715;48.546;9.896;2023-02-15T03:09:57;31.80;;;13.67;;
21114;SDS011;10715;48.546;9.896;2023-02-15T03:12:28;27.80;;;15.00;;
21114;SDS011;10715;48.546;9.896;2023-02-15T03:15:01;32.47;;;14.63;;
21114;SDS011;10715;48.546;9.896;2023-02-15T03:17:32;27.57;;;14.00;;
21114;SDS011;10715;48.546;9.896;2023-02-15T03:20:06;43.23;;;14.63;;
21114;SDS011;10715;48.546;9.896;2023-02-15T03:22:38;26.57;;;14.70;;
21114;SDS011;10715;48.546;9.896;2023-02-15T03:25:21;25.87;;;13.40;;
21114;SDS011;10715;48.546;9.896;2023-02-15T03:27:52;26.23;;;13.27;;
21114;SDS011;10715;48.546;9.896;2023-02-15T03:30:23;28.47;;;14.20;;
21114;SDS011;10715;48.546;9.896;2023-02-15T03:32:51;26.80;;;12.50;;
21114;SDS011;10715;48.546;9.896;2023-02-15T03:35:20;21.17;;;12.97;;
21114;SDS011;10715;48.546;9.896;2023-02-15T03:37:54;28.70;;;12.83;;
21114;SDS011;10715;48.546;9.896;2023-02-15T03:40:26;26.50;;;14.43;;
21114;SDS011;10715;48.546;9.896;2023-02-15T03:43:19;27.63;;;13.50;;
21114;SDS011;10715;48.546;9.896;2023-02-15T03:45:47;25.90;;;15.13;;
21114;SDS011;10715;48.546;9.896;2023-02-15T03:48:21;24.33;;;12.93;;
21114;SDS011;10715;48.546;9.896;2023-02-15T03:50:55;21.13;;;11.80;;
21114;SDS011;10715;48.546;9.896;2023-02-15T03:53:43;29.30;;;15.53;;
21114;SDS011;10715;48.546;9.896;2023-02-15T03:56:12;24.00;;;12.10;;
21114;SDS011;10715;48.546;9.896;2023-02-15T03:58:37;22.87;;;12.40;;
21114;SDS011;10715;48.546;9.896;2023-02-15T04:04:07;22.70;;;12.70;;
21114;SDS011;10715;48.546;9.896;2023-02-15T04:06:46;24.97;;;12.40;;
21114;SDS011;10715;48.546;9.896;2023-02-15T04:09:13;56.83;;;13.90;;
21114;SDS011;10715;48.546;9.896;2023-02-15T04:11:58;54.63;;;16.23;;
21114;SDS011;10715;48.546;9.896;2023-02-15T04:14:24;30.10;;;13.10;;
21114;SDS011;10715;48.546;9.896;2023-02-15T04:17:08;32.43;;;13.10;;
21114;SDS011;10715;48.546;9.896;2023-02-15T04:19:34;25.30;;;12.60;;
21114;SDS011;10715;48.546;9.896;2023-02-15T04:22:19;20.60;;;10.23;;
21114;SDS011;10715;48.546;9.896;2023-02-15T04:25:03;17.90;;;10.40;;
21114;SDS011;10715;48.546;9.896;2023-02-15T04:27:39;35.00;;;13.47;;
21114;SDS011;10715;48.546;9.896;2023-02-15T04:30:16;33.17;;;12.90;;
21114;SDS011;10715;48.546;9.896;2023-02-15T04:32:43;34.47;;;12.70;;
21114;SDS011;10715;48.546;9.896;2023-02-15T04:35:09;34.03;;;11.63;;
21114;SDS011;10715;48.546;9.896;2023-02-15T04:37:36;22.43;;;10.07;;
21114;SDS011;10715;48.546;9.896;2023-02-15T04:40:03;31.03;;;13.33;;
21114;SDS011;10715;48.546;9.896;2023-02-15T04:42:30;28.07;;;12.77;;
21114;SDS011;10715;48.546;9.896;2023-02-15T04:44:56;34.83;;;13.00;;
21114;SDS011;10715;48.546;9.896;2023-02-15T04:47:21;34.63;;;14.73;;
21114;SDS011;10715;48.546;9.896;2023-02-15T04:49:47;26.70;;;12.47;;
21114;SDS011;10715;48.546;9.896;2023-02-15T04:52:13;22.90;;;12.13;;
21114;SDS011;10715;48.546;9.896;2023-02-15T04:54:39;18.50;;;10.73;;
21114;SDS011;10715;48.546;9.896;2023-02-15T04:57:05;27.80;;;12.87;;
21114;SDS011;10715;48.546;9.896;2023-02-15T04:59:32;46.97;;;12.87;;
21114;SDS011;10715;48.546;9.896;2023-02-15T05:01:57;23.77;;;12.20;;
21114;SDS011;10715;48.546;9.896;2023-02-15T05:04:23;25.50;;;10.73;;
21114;SDS011;10715;48.546;9.896;2023-02-15T05:06:49;17.70;;;10.97;;
21114;SDS011;10715;48.546;9.896;2023-02-15T05:09:15;22.30;;;11.20;;
21114;SDS011;10715;48.546;9.896;2023-02-15T05:11:40;18.93;;;10.23;;
21114;SDS011;10715;48.546;9.896;2023-02-15T05:14:06;16.30;;;10.70;;
21114;SDS011;10715;48.546;9.896;2023-02-15T05:16:32;22.40;;;12.37;;
21114;SDS011;10715;48.546;9.896;2023-02-15T05:18:58;30.97;;;12.00;;
21114;SDS011;10715;48.546;9.896;2023-02-15T05:21:24;20.03;;;11.40;;
21114;SDS011;10715;48.546;9.896;2023-02-15T05:23:49;18.77;;;11.30;;
21114;SDS011;10715;48.546;9.896;2023-02-15T05:26:17;20.20;;;11.93;;
21114;SDS011;10715;48.546;9.896;2023-02-15T05:29:03;19.40;;;11.17;;
21114;SDS011;10715;48.546;9.896;2023-02-15T05:31:30;25.10;;;10.47;;
21114;SDS011;10715;48.546;9.896;2023-02-15T05:33:56;21.70;;;11.03;;
21114;SDS011;10715;48.546;9.896;2023-02-15T05:36:22;16.63;;;9.30;;
21114;SDS011;10715;48.546;9.896;2023-02-15T05:38:48;28.10;;;11.20;;
21114;SDS011;10715;48.546;9.896;2023-02-15T05:41:13;20.73;;;11.87;;
21114;SDS011;10715;48.546;9.896;2023-02-15T05:43:39;31.90;;;13.03;;
21114;SDS011;10715;48.546;9.896;2023-02-15T05:46:05;35.90;;;13.27;;
21114;SDS011;10715;48.546;9.896;2023-02-15T05:48:31;35.40;;;13.50;;
21114;SDS011;10715;48.546;9.896;2023-02-15T05:53:31;38.57;;;13.20;;
21114;SDS011;10715;48.546;9.896;2023-02-15T05:55:58;26.53;;;13.10;;
21114;SDS011;10715;48.546;9.896;2023-02-15T05:58:27;20.17;;;12.60;;
21114;SDS011;10715;48.546;9.896;2023-02-15T06:00:54;31.90;;;11.77;;
21114;SDS011;10715;48.546;9.896;2023-02-15T06:03:20;26.80;;;12.47;;
21114;SDS011;10715;48.546;9.896;2023-02-15T06:05:47;29.23;;;12.20;;
21114;SDS011;10715;48.546;9.896;2023-02-15T06:08:13;37.47;;;11.73;;
21114;SDS011;10715;48.546;9.896;2023-02-15T06:10:39;21.60;;;11.73;;
21114;SDS011;10715;48.546;9.896;2023-02-15T06:13:05;23.93;;;11.20;;
21114;SDS011;10715;48.546;9.896;2023-02-15T06:15:31;21.00;;;11.70;;
21114;SDS011;10715;48.546;9.896;2023-02-15T06:17:57;22.00;;;10.97;;
21114;SDS011;10715;48.546;9.896;2023-02-15T06:20:23;24.97;;;11.33;;
21114;SDS011;10715;48.546;9.896;2023-02-15T06:22:49;19.20;;;10.30;;
21114;SDS011;10715;48.546;9.896;2023-02-15T06:25:15;24.03;;;10.90;;
21114;SDS011;10715;48.546;9.896;2023-02-15T06:27:41;20.07;;;10.10;;
21114;SDS011;10715;48.546;9.896;2023-02-15T06:30:07;33.23;;;10.90;;
21114;SDS011;10715;48.546;9.896;2023-02-15T06:32:34;22.30;;;13.00;;
21114;SDS011;10715;48.546;9.896;2023-02-15T06:34:59;23.23;;;13.67;;
21114;SDS011;10715;48.546;9.896;2023-02-15T06:37:25;27.50;;;14.03;;
21114;SDS011;10715;48.546;9.896;2023-02-15T06:39:51;17.93;;;12.07;;
21114;SDS011;10715;48.546;9.896;2023-02-15T06:42:16;18.97;;;10.87;;
21114;SDS011;10715;48.546;9.896;2023-02-15T06:44:43;22.43;;;11.03;;
21114;SDS011;10715;48.546;9.896;2023-02-15T06:47:09;33.80;;;12.50;;
21114;SDS011;10715;48.546;9.896;2023-02-15T06:49:35;22.00;;;12.80;;
21114;SDS011;10715;48.546;9.896;2023-02-15T06:52:02;28.13;;;12.83;;
21114;SDS011;10715;48.546;9.896;2023-02-15T06:54:28;21.13;;;12.60;;
21114;SDS011;10715;48.546;9.896;2023-02-15T06:56:54;23.37;;;11.70;;
21114;SDS011;10715;48.546;9.896;2023-02-15T06:59:19;15.90;;;10.27;;
21114;SDS011;10715;48.546;9.896;2023-02-15T07:01:45;20.13;;;11.13;;
21114;SDS011;10715;48.546;9.896;2023-02-15T07:04:11;21.20;;;11.30;;
21114;SDS011;10715;48.546;9.896;2023-02-15T07:06:36;27.57;;;13.40;;
21114;SDS011;10715;48.546;9.896;2023-02-15T07:09:03;22.77;;;12.13;;
21114;SDS011;10715;48.546;9.896;2023-02-15T07:11:29;22.03;;;12.27;;
21114;SDS011;10715;48.546;9.896;2023-02-15T07:14:13;19.77;;;11.00;;
21114;SDS011;10715;48.546;9.896;2023-02-15T07:16:39;28.33;;;13.53;;
21114;SDS011;10715;48.546;9.896;2023-02-15T07:19:04;21.63;;;11.43;;
21114;SDS011;10715;48.546;9.896;2023-02-15T07:21:30;24.53;;;13.90;;
21114;SDS011;10715;48.546;9.896;2023-02-15T07:23:56;24.87;;;12.70;;
21114;SDS011;10715;48.546;9.896;2023-02-15T07:26:22;24.07;;;12.77;;
21114;SDS011;10715;48.546;9.896;2023-02-15T07:28:48;22.80;;;12.50;;
21114;SDS011;10715;48.546;9.896;2023-02-15T07:31:14;17.70;;;11.47;;
21114;SDS011;10715;48.546;9.896;2023-02-15T07:33:40;19.10;;;11.97;;
21114;SDS011;10715;48.546;9.896;2023-02-15T07:36:06;23.87;;;13.17;;
21114;SDS011;10715;48.546;9.896;2023-02-15T07:38:35;22.53;;;12.43;;
21114;SDS011;10715;48.546;9.896;2023-02-15T07:41:03;21.37;;;11.93;;
21114;SDS011;10715;48.546;9.896;2023-02-15T07:43:32;20.30;;;12.73;;
21114;SDS011;10715;48.546;9.896;2023-02-15T07:46:00;22.97;;;11.20;;
21114;SDS011;10715;48.546;9.896;2023-02-15T07:48:26;26.43;;;13.13;;
21114;SDS011;10715;48.546;9.896;2023-02-15T07:50:52;22.40;;;11.50;;
21114;SDS011;10715;48.546;9.896;2023-02-15T07:53:18;19.63;;;11.50;;
21114;SDS011;10715;48.546;9.896;2023-02-15T07:55:44;27.80;;;12.87;;
21114;SDS011;10715;48.546;9.896;2023-02-15T07:58:09;19.97;;;13.00;;
21114;SDS011;10715;48.546;9.896;2023-02-15T08:00:35;30.30;;;15.50;;
21114;SDS011;10715;48.546;9.896;2023-02-15T08:03:19;25.33;;;14.33;;
21114;SDS011;10715;48.546;9.896;2023-02-15T08:05:47;22.13;;;12.10;;
21114;SDS011;10715;48.546;9.896;2023-02-15T08:08:13;24.20;;;13.17;;
21114;SDS011;10715;48.546;9.896;2023-02-15T08:11:04;24.00;;;13.17;;
21114;SDS011;10715;48.546;9.896;2023-02-15T08:13:50;31.00;;;14.20;;
21114;SDS011;10715;48.546;9.896;2023-02-15T08:21:46;27.20;;;13.43;;
21114;SDS011;10715;48.546;9.896;2023-02-15T08:24:14;38.57;;;17.90;;
21114;SDS011;10715;48.546;9.896;2023-02-15T08:26:42;23.40;;;14.80;;
21114;SDS011;10715;48.546;9.896;2023-02-15T08:29:11;37.13;;;16.40;;
21114;SDS011;10715;48.546;9.896;2023-02-15T08:31:38;76.33;;;33.70;;
21114;SDS011;10715;48.546;9.896;2023-02-15T08:34:06;31.93;;;12.23;;
21114;SDS011;10715;48.546;9.896;2023-02-15T08:36:32;27.80;;;15.17;;
21114;SDS011;10715;48.546;9.896;2023-02-15T08:38:58;24.63;;;13.37;;
21114;SDS011;10715;48.546;9.896;2023-02-15T08:41:29;24.27;;;15.20;;
21114;SDS011;10715;48.546;9.896;2023-02-15T08:44:01;23.83;;;13.30;;
21114;SDS011;10715;48.546;9.896;2023-02-15T08:46:29;24.77;;;13.93;;
21114;SDS011;10715;48.546;9.896;2023-02-15T08:48:57;35.00;;;16.53;;
21114;SDS011;10715;48.546;9.896;2023-02-15T08:51:24;26.13;;;16.20;;
21114;SDS011;10715;48.546;9.896;2023-02-15T08:53:53;26.63;;;14.70;;
21114;SDS011;10715;48.546;9.896;2023-02-15T08:56:22;29.93;;;15.50;;
21114;SDS011;10715;48.546;9.896;2023-02-15T08:58:49;30.77;;;15.83;;
21114;SDS011;10715;48.546;9.896;2023-02-15T09:01:16;27.37;;;14.53;;
21114;SDS011;10715;48.546;9.896;2023-02-15T09:03:43;25.30;;;12.80;;
21114;SDS011;10715;48.546;9.896;2023-02-15T09:06:10;32.83;;;16.67;;
21114;SDS011;10715;48.546;9.896;2023-02-15T09:08:36;33.57;;;17.63;;
21114;SDS011;10715;48.546;9.896;2023-02-15T09:11:18;29.93;;;15.73;;
21114;SDS011;10715;48.546;9.896;2023-02-15T09:13:55;32.17;;;16.13;;
21114;SDS011;10715;48.546;9.896;2023-02-15T09:16:23;27.23;;;13.20;;
21114;SDS011;10715;48.546;9.896;2023-02-15T09:18:51;31.53;;;15.53;;
21114;SDS011;10715;48.546;9.896;2023-02-15T09:21:19;24.00;;;14.70;;
21114;SDS011;10715;48.546;9.896;2023-02-15T09:23:48;35.03;;;15.53;;
21114;SDS011;10715;48.546;9.896;2023-02-15T09:26:16;28.40;;;15.97;;
21114;SDS011;10715;48.546;9.896;2023-02-15T09:28:46;30.10;;;15.63;;
21114;SDS011;10715;48.546;9.896;2023-02-15T09:33:44;28.47;;;15.70;;
21114;SDS011;10715;48.546;9.896;2023-02-15T09:36:16;27.97;;;14.30;;
21114;SDS011;10715;48.546;9.896;2023-02-15T09:38:50;33.63;;;16.53;;
21114;SDS011;10715;48.546;9.896;2023-02-15T10:15:45;44.17;;;18.60;;
21114;SDS011;10715;48.546;9.896;2023-02-15T10:26:19;54.40;;;22.93;;
21114;SDS011;10715;48.546;9.896;2023-02-15T10:29:09;50.70;;;20.00;;
21114;SDS011;10715;48.546;9.896;2023-02-15T10:50:49;51.60;;;22.10;;
21114;SDS011;10715;48.546;9.896;2023-02-15T10:56:43;46.27;;;21.60;;
21114;SDS011;10715;48.546;9.896;2023-02-15T11:04:53;56.87;;;21.33;;
21114;SDS011;10715;48.546;9.896;2023-02-15T11:07:38;53.20;;;22.53;;
21114;SDS011;10715;48.546;9.896;2023-02-15T11:12:59;51.40;;;20.50;;
21114;SDS011;10715;48.546;9.896;2023-02-15T11:15:31;52.90;;;22.87;;
21114;SDS011;10715;48.546;9.896;2023-02-15T11:20:53;52.93;;;24.80;;
21114;SDS011;10715;48.546;9.896;2023-02-15T11:23:26;50.20;;;21.77;;
21114;SDS011;10715;48.546;9.896;2023-02-15T11:26:02;58.47;;;24.37;;
21114;SDS011;10715;48.546;9.896;2023-02-15T11:28:33;44.83;;;22.33;;
21114;SDS011;10715;48.546;9.896;2023-02-15T11:31:16;55.23;;;24.20;;
21114;SDS011;10715;48.546;9.896;2023-02-15T11:33:45;55.03;;;23.37;;
21114;SDS011;10715;48.546;9.896;2023-02-15T11:36:34;56.37;;;23.87;;
21114;SDS011;10715;48.546;9.896;2023-02-15T11:39:14;49.67;;;22.90;;
21114;SDS011;10715;48.546;9.896;2023-02-15T11:41:46;47.70;;;20.47;;
21114;SDS011;10715;48.546;9.896;2023-02-15T11:47:00;43.37;;;21.33;;
21114;SDS011;10715;48.546;9.896;2023-02-15T11:52:00;50.67;;;23.00;;
21114;SDS011;10715;48.546;9.896;2023-02-15T11:54:30;39.87;;;20.27;;
21114;SDS011;10715;48.546;9.896;2023-02-15T11:59:38;56.73;;;27.83;;
21114;SDS011;10715;48.546;9.896;2023-02-15T12:02:15;55.83;;;24.37;;
21114;SDS011;10715;48.546;9.896;2023-02-15T12:04:44;59.87;;;23.83;;
21114;SDS011;10715;48.546;9.896;2023-02-15T12:07:20;46.53;;;24.27;;
21114;SDS011;10715;48.546;9.896;2023-02-15T12:12:32;47.60;;;22.33;;
21114;SDS011;10715;48.546;9.896;2023-02-15T12:15:03;46.77;;;21.30;;
21114;SDS011;10715;48.546;9.896;2023-02-15T12:17:38;41.60;;;20.03;;
21114;SDS011;10715;48.546;9.896;2023-02-15T12:22:49;48.57;;;22.20;;
21114;SDS011;10715;48.546;9.896;2023-02-15T12:25:23;58.87;;;22.40;;
21114;SDS011;10715;48.546;9.896;2023-02-15T12:27:50;39.27;;;20.97;;
21114;SDS011;10715;48.546;9.896;2023-02-15T12:30:21;42.60;;;22.70;;
21114;SDS011;10715;48.546;9.896;2023-02-15T12:35:50;41.37;;;21.40;;
21114;SDS011;10715;48.546;9.896;2023-02-15T12:38:29;52.67;;;24.43;;
21114;SDS011;10715;48.546;9.896;2023-02-15T12:41:05;45.23;;;22.20;;
21114;SDS011;10715;48.546;9.896;2023-02-15T12:43:48;60.67;;;27.20;;
21114;SDS011;10715;48.546;9.896;2023-02-15T12:46:32;53.43;;;25.03;;
21114;SDS011;10715;48.546;9.896;2023-02-15T12:49:05;46.60;;;23.40;;
21114;SDS011;10715;48.546;9.896;2023-02-15T12:52:22;44.60;;;21.90;;
21114;SDS011;10715;48.546;9.896;2023-02-15T12:54:47;45.40;;;22.60;;
21114;SDS011;10715;48.546;9.896;2023-02-15T12:57:14;59.57;;;25.67;;
21114;SDS011;10715;48.546;9.896;2023-02-15T12:59:58;50.17;;;23.83;;
21114;SDS011;10715;48.546;9.896;2023-02-15T13:07:38;46.20;;;21.13;;
21114;SDS011;10715;48.546;9.896;2023-02-15T13:13:18;49.83;;;23.40;;
21114;SDS011;10715;48.546;9.896;2023-02-15T13:15:49;43.47;;;22.00;;
21114;SDS011;10715;48.546;9.896;2023-02-15T13:18:19;41.10;;;21.43;;
21114;SDS011;10715;48.546;9.896;2023-02-15T13:20:54;51.30;;;20.60;;
21114;SDS011;10715;48.546;9.896;2023-02-15T13:23:23;47.20;;;23.17;;
21114;SDS011;10715;48.546;9.896;2023-02-15T13:25:55;53.00;;;23.20;;
21114;SDS011;10715;48.546;9.896;2023-02-15T13:28:44;45.93;;;21.70;;
21114;SDS011;10715;48.546;9.896;2023-02-15T13:31:18;50.87;;;22.33;;
21114;SDS011;10715;48.546;9.896;2023-02-15T13:33:53;48.20;;;20.07;;
21114;SDS011;10715;48.546;9.896;2023-02-15T13:59:12;41.67;;;20.67;;
21114;SDS011;10715;48.546;9.896;2023-02-15T14:10:18;57.57;;;22.83;;
21114;SDS011;10715;48.546;9.896;2023-02-15T14:21:42;48.33;;;21.10;;
21114;SDS011;10715;48.546;9.896;2023-02-15T14:24:46;43.57;;;20.13;;
21114;SDS011;10715;48.546;9.896;2023-02-15T14:30:20;50.17;;;22.60;;
21114;SDS011;10715;48.546;9.896;2023-02-15T14:32:53;43.87;;;20.50;;
21114;SDS011;10715;48.546;9.896;2023-02-15T14:35:26;34.97;;;19.40;;
21114;SDS011;10715;48.546;9.896;2023-02-15T14:40:44;32.57;;;18.73;;
21114;SDS011;10715;48.546;9.896;2023-02-15T14:48:57;33.33;;;18.00;;
21114;SDS011;10715;48.546;9.896;2023-02-15T14:56:44;42.20;;;19.60;;
21114;SDS011;10715;48.546;9.896;2023-02-15T14:59:13;29.73;;;18.17;;
21114;SDS011;10715;48.546;9.896;2023-02-15T15:01:41;34.83;;;16.90;;
21114;SDS011;10715;48.546;9.896;2023-02-15T15:09:39;36.67;;;19.90;;
21114;SDS011;10715;48.546;9.896;2023-02-15T15:14:51;35.00;;;18.47;;
21114;SDS011;10715;48.546;9.896;2023-02-15T15:20:05;30.00;;;18.50;;
21114;SDS011;10715;48.546;9.896;2023-02-15T15:22:40;36.13;;;19.50;;
21114;SDS011;10715;48.546;9.896;2023-02-15T15:27:58;32.43;;;16.23;;
21114;SDS011;10715;48.546;9.896;2023-02-15T15:49:10;30.13;;;16.60;;
21114;SDS011;10715;48.546;9.896;2023-02-15T15:51:41;37.27;;;17.30;;
21114;SDS011;10715;48.546;9.896;2023-02-15T15:54:21;35.93;;;18.30;;
21114;SDS011;10715;48.546;9.896;2023-02-15T15:56:51;37.47;;;18.27;;
21114;SDS011;10715;48.546;9.896;2023-02-15T15:59:27;27.63;;;17.17;;
21114;SDS011;10715;48.546;9.896;2023-02-15T16:01:56;36.70;;;16.10;;
21114;SDS011;10715;48.546;9.896;2023-02-15T16:04:31;35.70;;;15.87;;
21114;SDS011;10715;48.546;9.896;2023-02-15T16:07:01;29.73;;;16.77;;
21114;SDS011;10715;48.546;9.896;2023-02-15T16:09:41;31.20;;;15.57;;
21114;SDS011;10715;48.546;9.896;2023-02-15T16:12:22;35.13;;;15.40;;
21114;SDS011;10715;48.546;9.896;2023-02-15T16:14:49;32.90;;;16.50;;
21114;SDS011;10715;48.546;9.896;2023-02-15T16:17:19;31.13;;;16.60;;
21114;SDS011;10715;48.546;9.896;2023-02-15T16:19:47;32.07;;;15.97;;
21114;SDS011;10715;48.546;9.896;2023-02-15T16:22:24;33.90;;;16.50;;
21114;SDS011;10715;48.546;9.896;2023-02-15T16:24:55;34.63;;;15.17;;
21114;SDS011;10715;48.546;9.896;2023-02-15T16:27:44;31.13;;;17.67;;
21114;SDS011;10715;48.546;9.896;2023-02-15T16:32:43;27.80;;;15.77;;
21114;SDS011;10715;48.546;9.896;2023-02-15T16:35:12;23.93;;;13.33;;
21114;SDS011;10715;48.546;9.896;2023-02-15T16:37:40;30.70;;;14.30;;
21114;SDS011;10715;48.546;9.896;2023-02-15T16:40:06;29.97;;;14.53;;
21114;SDS011;10715;48.546;9.896;2023-02-15T16:42:53;25.17;;;14.37;;
21114;SDS011;10715;48.546;9.896;2023-02-15T16:45:25;33.90;;;15.43;;
21114;SDS011;10715;48.546;9.896;2023-02-15T16:47:53;34.17;;;15.70;;
21114;SDS011;10715;48.546;9.896;2023-02-15T16:50:30;27.70;;;15.60;;
21114;SDS011;10715;48.546;9.896;2023-02-15T16:53:01;34.60;;;16.93;;
21114;SDS011;10715;48.546;9.896;2023-02-15T16:55:37;31.53;;;14.87;;
21114;SDS011;10715;48.546;9.896;2023-02-15T16:58:06;36.37;;;15.40;;
21114;SDS011;10715;48.546;9.896;2023-02-15T17:00:37;29.97;;;13.63;;
21114;SDS011;10715;48.546;9.896;2023-02-15T17:03:12;28.77;;;14.50;;
21114;SDS011;10715;48.546;9.896;2023-02-15T17:05:54;28.47;;;14.17;;
21114;SDS011;10715;48.546;9.896;2023-02-15T17:11:03;24.40;;;14.07;;
21114;SDS011;10715;48.546;9.896;2023-02-15T17:13:34;29.33;;;16.33;;
21114;SDS011;10715;48.546;9.896;2023-02-15T17:21:10;34.47;;;17.10;;
21114;SDS011;10715;48.546;9.896;2023-02-15T17:23:50;29.83;;;14.00;;
21114;SDS011;10715;48.546;9.896;2023-02-15T17:26:21;30.87;;;15.83;;
21114;SDS011;10715;48.546;9.896;2023-02-15T17:28:50;27.27;;;15.00;;
21114;SDS011;10715;48.546;9.896;2023-02-15T17:31:18;34.13;;;16.50;;
21114;SDS011;10715;48.546;9.896;2023-02-15T17:33:46;39.27;;;18.77;;
21114;SDS011;10715;48.546;9.896;2023-02-15T17:36:17;37.50;;;15.93;;
21114;SDS011;10715;48.546;9.896;2023-02-15T17:41:22;35.23;;;19.90;;
21114;SDS011;10715;48.546;9.896;2023-02-15T17:43:48;30.10;;;15.83;;
21114;SDS011;10715;48.546;9.896;2023-02-15T17:46:14;27.97;;;17.40;;
21114;SDS011;10715;48.546;9.896;2023-02-15T17:48:43;26.43;;;12.47;;
21114;SDS011;10715;48.546;9.896;2023-02-15T17:51:12;32.53;;;12.53;;
21114;SDS011;10715;48.546;9.896;2023-02-15T17:53:39;28.67;;;12.43;;
21114;SDS011;10715;48.546;9.896;2023-02-15T17:56:26;23.13;;;11.40;;
21114;SDS011;10715;48.546;9.896;2023-02-15T17:58:51;20.37;;;10.60;;
21114;SDS011;10715;48.546;9.896;2023-02-15T18:01:17;20.73;;;10.83;;
21114;SDS011;10715;48.546;9.896;2023-02-15T18:04:04;24.50;;;13.00;;
21114;SDS011;10715;48.546;9.896;2023-02-15T18:06:51;23.37;;;13.90;;
21114;SDS011;10715;48.546;9.896;2023-02-15T18:09:35;24.83;;;11.97;;
21114;SDS011;10715;48.546;9.896;2023-02-15T18:12:21;21.60;;;12.43;;
21114;SDS011;10715;48.546;9.896;2023-02-15T18:14:49;20.20;;;11.83;;
21114;SDS011;10715;48.546;9.896;2023-02-15T18:17:17;21.73;;;11.63;;
21114;SDS011;10715;48.546;9.896;2023-02-15T18:19:43;20.70;;;13.30;;
21114;SDS011;10715;48.546;9.896;2023-02-15T18:22:11;26.33;;;13.80;;
21114;SDS011;10715;48.546;9.896;2023-02-15T18:24:38;30.63;;;14.33;;
21114;SDS011;10715;48.546;9.896;2023-02-15T18:27:04;25.73;;;13.63;;
21114;SDS011;10715;48.546;9.896;2023-02-15T18:29:30;32.23;;;17.07;;
21114;SDS011;10715;48.546;9.896;2023-02-15T18:31:56;26.23;;;14.50;;
21114;SDS011;10715;48.546;9.896;2023-02-15T18:34:31;31.13;;;14.60;;
21114;SDS011;10715;48.546;9.896;2023-02-15T18:37:02;39.50;;;15.67;;
21114;SDS011;10715;48.546;9.896;2023-02-15T18:39:37;34.43;;;16.40;;
21114;SDS011;10715;48.546;9.896;2023-02-15T18:42:19;33.83;;;16.90;;